航空気象通報

ウインドサーファーのための航空気象通報による風予報です。

7/29-7/31の航空気象通報

2017年07月29日 23時46分17秒 | TAF
羽田空港
TAF RJTT 291105Z 2912/3018 09012KT 8000 FEW008 BKN015
TEMPO 2912/2914 4000 SHRA
BECMG 2912/2914 05010KT
TEMPO 2916/2921 4000 -SHRA BR FEW005 BKN008
BECMG 3003/3006 08008KT
日本時間29日21時:090度から12ノットの風
21-23時:風が変化
23時-30日12時:050度から10ノットの風
12-15時:風が変化
15時-31日03時:080度から8ノットの風

但し、30日01-06時の間:ときどき

静岡空港
TAF RJNS 291116Z 2912/3018 34004KT 8000 FEW003 SCT008 BKN030
TEMPO 2912/2918 4000 -SHRA BR FEW003 BKN008
BECMG 3003/3006 14006KT
BECMG 3012/3015 32004KT
日本時間29日21時-30日12時:340度から4ノットの風
12-15時:風が変化
15-21時:140度から6ノットの風
21-24時:風が変化
31日00-03時:320度から4ノットの風

但し、29日21時-30日03時の間:ときどき

福岡空港
TAF RJFF 291106Z 2912/3018 34005KT 9999 FEW020
BECMG 2914/2916 15004KT
BECMG 2922/3000 32010KT
BECMG 3015/3018 15004KT
日本時間29日21-23時:340度から5ノットの風
23時-30日01時:風が変化
01-07時:150度から4ノットの風
07-09時:風が変化
09-24時:320度から10ノットの風
31日00-03時:風が変化
03時:150度から4ノットの風


那覇空港
TAF ROAH 291107Z 2912/3018 15009KT 9999 FEW015
TEMPO 3000/3009 SHRA FEW015 FEW020CB SCT025
日本時間29日21時-31日03時:150度から9ノットの風

但し、30日09-18時の間:ときどき

石垣空港
TAF AMD ROIG 291325Z 2913/3018 16017KT 9999 FEW015 BKN030
TEMPO 2913/2916 16025G35KT 3000 TSRA FEW008 FEW020CB BKN025
日本時間29日21時-31日03時:160度から17ノットの風
但し、29日22時-30日01時の間:ときどき160度から25ノット、突風35ノット

但し、29日22時-30日01時の間:ときどき

マウイのカフルイ空港
PHOG 291251Z 2913/3012 06009KT P6SM VCSH FEW030 SCT045
FM292000 05016G24KT P6SM FEW030 SCT050
FM300800 05009KT P6SM FEW030 SCT050 AMD LTD TO VIS AND WIND TIL 291600
ハワイ時間29日02-10時:060度から9ノットの風
10-22時:050度から16ノット、突風24ノット
22時-30日02時:050度から9ノットの風


サイパン空港
PGSN 291242Z 2913/3012 25010KT P6SM VCSH FEW020 SCT050 BKN080
TEMPO 2913/2916 30014G26KT 2SM +SHRA SCT011 BKN025 OVC040
マリアナ時間29日23時-30日22時:250度から10ノットの風
但し、29日23時-30日02時の間:ときどき300度から14ノット、突風26ノット

但し、29日23時-30日02時の間:ときどき
ジャンル:
お天気
コメント   この記事についてブログを書く
この記事をはてなブックマークに追加
« 7/28-7/30の航空気象通報 | トップ | 7/30-8/1の航空気象通報 »
最近の画像もっと見る

コメントを投稿

ブログ作成者から承認されるまでコメントは反映されません。

TAF」カテゴリの最新記事

トラックバック

この記事のトラックバック  Ping-URL
ブログ作成者から承認されるまでトラックバックは反映されません。
  • 30日以上前の記事に対するトラックバックは受け取らないよう設定されております。
  • 送信元の記事内容が半角英数のみのトラックバックは受け取らないよう設定されております。
  • このブログへのリンクがない記事からのトラックバックは受け取らないよう設定されております。
  • ※ブログ管理者のみ、編集画面で設定の変更が可能です。